Terminal Aerodrome Forecast
Issued by NWS

Home | Current Version | Previous Version | Text Only | Print | Product List | Glossary On
Versions: 1 2 3 4 5 6 7 8 9 10 11 12 13 14 15 16
839
FTUS42 KFFC 231146
TAFFTY
TAF
KFTY 231146Z 2312/2412 10008KT 6SM BR VCSH SCT006 OVC012
      TEMPO 2312/2316 OVC006
     FM231800 14008KT P6SM VCSH BKN012
     FM232200 11005KT P6SM BKN020
     FM240400 26005KT P6SM BKN035=

USA.gov is the U.S. government's official web portal to all federal, state and local government web resources and services.